EDFH/HHN METAR and TAF weather

Enter ICAO airport designator
Station Type Date Time Source
EDFH METAR 2019/06/24 23:50 UTC NOAA

EDFH 242350Z 10003KT 040V180 CAVOK 22/15 Q1020


Station Type Date Time Source
EDFH Decoded METAR 2019/06/24 23:50 UTC NOAA

Hahn, Germany (EDFH) 49-57N 007-16E 498M
Jun 24, 2019 - 07:50 PM EDT / 2019.06.24 2350 UTC
Wind: from the E (100 degrees) at 3 MPH (3 KT) (direction variable):0
Visibility: greater than 7 mile(s):0
Temperature: 71 F (22 C)
Dew Point: 59 F (15 C)
Relative Humidity: 64%
Pressure (altimeter): 30.12 in. Hg (1020 hPa)
ob: EDFH 242350Z 10003KT 040V180 CAVOK 22/15 Q1020
cycle: 0

Station Type Date Time Source
EDFH TAF 2019/06/24 18:27 UTC NOAA

TAF EDFH 241700Z 2418/2518 14009KT CAVOK
BECMG 2512/2514 21009KT

Example: see airport list